sensor_id;sensor_type;location;lat;lon;timestamp;P1;durP1;ratioP1;P2;durP2;ratioP2
17925;SDS011;9088;55.674;13.354;2023-09-08T00:00:24;0.30;;;0.30;;
17925;SDS011;9088;55.674;13.354;2023-09-08T00:02:51;0.30;;;0.30;;
17925;SDS011;9088;55.674;13.354;2023-09-08T00:05:19;0.30;;;0.30;;
17925;SDS011;9088;55.674;13.354;2023-09-08T00:07:46;0.30;;;0.30;;
17925;SDS011;9088;55.674;13.354;2023-09-08T00:10:13;0.30;;;0.30;;
17925;SDS011;9088;55.674;13.354;2023-09-08T00:12:41;0.30;;;0.30;;
17925;SDS011;9088;55.674;13.354;2023-09-08T00:15:09;0.30;;;0.30;;
17925;SDS011;9088;55.674;13.354;2023-09-08T00:17:36;0.30;;;0.30;;
17925;SDS011;9088;55.674;13.354;2023-09-08T00:20:03;0.30;;;0.30;;
17925;SDS011;9088;55.674;13.354;2023-09-08T00:22:34;0.30;;;0.30;;
17925;SDS011;9088;55.674;13.354;2023-09-08T00:25:01;0.30;;;0.30;;
17925;SDS011;9088;55.674;13.354;2023-09-08T00:27:29;0.30;;;0.30;;
17925;SDS011;9088;55.674;13.354;2023-09-08T00:29:56;0.30;;;0.30;;
17925;SDS011;9088;55.674;13.354;2023-09-08T00:32:23;0.30;;;0.30;;
17925;SDS011;9088;55.674;13.354;2023-09-08T00:34:50;0.30;;;0.30;;
17925;SDS011;9088;55.674;13.354;2023-09-08T00:37:17;0.30;;;0.30;;
17925;SDS011;9088;55.674;13.354;2023-09-08T00:39:45;0.30;;;0.30;;
17925;SDS011;9088;55.674;13.354;2023-09-08T00:42:12;0.30;;;0.30;;
17925;SDS011;9088;55.674;13.354;2023-09-08T00:44:39;0.30;;;0.30;;
17925;SDS011;9088;55.674;13.354;2023-09-08T00:47:06;0.30;;;0.30;;
17925;SDS011;9088;55.674;13.354;2023-09-08T00:49:33;0.30;;;0.30;;
17925;SDS011;9088;55.674;13.354;2023-09-08T00:52:00;0.30;;;0.30;;
17925;SDS011;9088;55.674;13.354;2023-09-08T00:54:28;0.30;;;0.30;;
17925;SDS011;9088;55.674;13.354;2023-09-08T00:56:56;0.30;;;0.30;;
17925;SDS011;9088;55.674;13.354;2023-09-08T00:59:24;0.30;;;0.30;;
17925;SDS011;9088;55.674;13.354;2023-09-08T01:01:51;0.30;;;0.30;;
17925;SDS011;9088;55.674;13.354;2023-09-08T01:04:18;0.30;;;0.30;;
17925;SDS011;9088;55.674;13.354;2023-09-08T01:06:45;0.30;;;0.30;;
17925;SDS011;9088;55.674;13.354;2023-09-08T01:09:12;0.30;;;0.30;;
17925;SDS011;9088;55.674;13.354;2023-09-08T01:11:39;0.30;;;0.30;;
17925;SDS011;9088;55.674;13.354;2023-09-08T01:14:07;0.30;;;0.30;;
17925;SDS011;9088;55.674;13.354;2023-09-08T01:16:34;0.30;;;0.30;;
17925;SDS011;9088;55.674;13.354;2023-09-08T01:19:02;0.30;;;0.30;;
17925;SDS011;9088;55.674;13.354;2023-09-08T01:24:31;0.30;;;0.30;;
17925;SDS011;9088;55.674;13.354;2023-09-08T01:27:03;0.30;;;0.30;;
17925;SDS011;9088;55.674;13.354;2023-09-08T01:29:31;0.30;;;0.30;;
17925;SDS011;9088;55.674;13.354;2023-09-08T01:31:58;0.40;;;0.40;;
17925;SDS011;9088;55.674;13.354;2023-09-08T01:34:25;0.30;;;0.30;;
17925;SDS011;9088;55.674;13.354;2023-09-08T01:36:52;0.30;;;0.30;;
17925;SDS011;9088;55.674;13.354;2023-09-08T01:39:19;0.30;;;0.30;;
17925;SDS011;9088;55.674;13.354;2023-09-08T01:41:46;0.40;;;0.40;;
17925;SDS011;9088;55.674;13.354;2023-09-08T01:44:15;0.30;;;0.30;;
17925;SDS011;9088;55.674;13.354;2023-09-08T01:46:42;0.30;;;0.30;;
17925;SDS011;9088;55.674;13.354;2023-09-08T01:49:09;0.30;;;0.30;;
17925;SDS011;9088;55.674;13.354;2023-09-08T01:51:36;0.30;;;0.30;;
17925;SDS011;9088;55.674;13.354;2023-09-08T01:54:03;0.30;;;0.30;;
17925;SDS011;9088;55.674;13.354;2023-09-08T01:56:30;0.30;;;0.30;;
17925;SDS011;9088;55.674;13.354;2023-09-08T01:58:57;0.30;;;0.30;;
17925;SDS011;9088;55.674;13.354;2023-09-08T02:01:26;0.30;;;0.30;;
17925;SDS011;9088;55.674;13.354;2023-09-08T02:03:53;0.30;;;0.30;;
17925;SDS011;9088;55.674;13.354;2023-09-08T02:06:20;0.30;;;0.30;;
17925;SDS011;9088;55.674;13.354;2023-09-08T02:08:47;0.30;;;0.30;;
17925;SDS011;9088;55.674;13.354;2023-09-08T02:11:14;0.30;;;0.30;;
17925;SDS011;9088;55.674;13.354;2023-09-08T02:13:41;0.30;;;0.30;;
17925;SDS011;9088;55.674;13.354;2023-09-08T02:16:12;0.30;;;0.30;;
17925;SDS011;9088;55.674;13.354;2023-09-08T02:18:40;0.30;;;0.30;;
17925;SDS011;9088;55.674;13.354;2023-09-08T02:21:07;0.40;;;0.40;;
17925;SDS011;9088;55.674;13.354;2023-09-08T02:23:34;0.30;;;0.30;;
17925;SDS011;9088;55.674;13.354;2023-09-08T02:26:01;0.33;;;0.33;;
17925;SDS011;9088;55.674;13.354;2023-09-08T02:28:28;0.37;;;0.37;;
17925;SDS011;9088;55.674;13.354;2023-09-08T02:30:56;0.40;;;0.40;;
17925;SDS011;9088;55.674;13.354;2023-09-08T02:33:23;0.30;;;0.30;;
17925;SDS011;9088;55.674;13.354;2023-09-08T02:35:51;0.40;;;0.40;;
17925;SDS011;9088;55.674;13.354;2023-09-08T02:38:18;0.30;;;0.30;;
17925;SDS011;9088;55.674;13.354;2023-09-08T02:40:45;0.40;;;0.40;;
17925;SDS011;9088;55.674;13.354;2023-09-08T02:43:12;0.30;;;0.30;;
17925;SDS011;9088;55.674;13.354;2023-09-08T02:45:39;0.40;;;0.40;;
17925;SDS011;9088;55.674;13.354;2023-09-08T02:48:06;0.40;;;0.40;;
17925;SDS011;9088;55.674;13.354;2023-09-08T02:50:33;0.40;;;0.40;;
17925;SDS011;9088;55.674;13.354;2023-09-08T02:53:02;0.30;;;0.30;;
17925;SDS011;9088;55.674;13.354;2023-09-08T02:55:29;0.40;;;0.40;;
17925;SDS011;9088;55.674;13.354;2023-09-08T02:57:56;0.40;;;0.40;;
17925;SDS011;9088;55.674;13.354;2023-09-08T03:00:24;0.40;;;0.40;;
17925;SDS011;9088;55.674;13.354;2023-09-08T03:02:51;0.40;;;0.40;;
17925;SDS011;9088;55.674;13.354;2023-09-08T03:05:18;0.40;;;0.40;;
17925;SDS011;9088;55.674;13.354;2023-09-08T03:07:47;0.40;;;0.40;;
17925;SDS011;9088;55.674;13.354;2023-09-08T03:10:15;0.40;;;0.40;;
17925;SDS011;9088;55.674;13.354;2023-09-08T03:12:42;0.40;;;0.40;;
17925;SDS011;9088;55.674;13.354;2023-09-08T03:15:10;0.40;;;0.40;;
17925;SDS011;9088;55.674;13.354;2023-09-08T03:17:37;0.40;;;0.40;;
17925;SDS011;9088;55.674;13.354;2023-09-08T03:20:04;0.40;;;0.40;;
17925;SDS011;9088;55.674;13.354;2023-09-08T03:22:33;0.40;;;0.40;;
17925;SDS011;9088;55.674;13.354;2023-09-08T03:25:00;0.40;;;0.40;;
17925;SDS011;9088;55.674;13.354;2023-09-08T03:27:29;0.40;;;0.40;;
17925;SDS011;9088;55.674;13.354;2023-09-08T03:29:56;0.40;;;0.40;;
17925;SDS011;9088;55.674;13.354;2023-09-08T03:32:23;0.40;;;0.40;;
17925;SDS011;9088;55.674;13.354;2023-09-08T03:34:50;0.40;;;0.40;;
17925;SDS011;9088;55.674;13.354;2023-09-08T03:37:17;0.40;;;0.40;;
17925;SDS011;9088;55.674;13.354;2023-09-08T03:39:44;0.50;;;0.50;;
17925;SDS011;9088;55.674;13.354;2023-09-08T03:42:11;0.50;;;0.50;;
17925;SDS011;9088;55.674;13.354;2023-09-08T03:44:40;0.50;;;0.50;;
17925;SDS011;9088;55.674;13.354;2023-09-08T03:47:07;0.50;;;0.50;;
17925;SDS011;9088;55.674;13.354;2023-09-08T03:49:34;0.50;;;0.50;;
17925;SDS011;9088;55.674;13.354;2023-09-08T03:52:01;0.50;;;0.50;;
17925;SDS011;9088;55.674;13.354;2023-09-08T03:54:28;0.53;;;0.53;;
17925;SDS011;9088;55.674;13.354;2023-09-08T03:56:55;0.50;;;0.50;;
17925;SDS011;9088;55.674;13.354;2023-09-08T03:59:22;0.60;;;0.60;;
17925;SDS011;9088;55.674;13.354;2023-09-08T04:01:50;0.57;;;0.57;;
17925;SDS011;9088;55.674;13.354;2023-09-08T04:04:17;0.50;;;0.50;;
17925;SDS011;9088;55.674;13.354;2023-09-08T04:06:45;0.60;;;0.60;;
17925;SDS011;9088;55.674;13.354;2023-09-08T04:09:12;0.60;;;0.60;;
17925;SDS011;9088;55.674;13.354;2023-09-08T04:11:39;0.60;;;0.60;;
17925;SDS011;9088;55.674;13.354;2023-09-08T04:14:06;0.60;;;0.60;;
17925;SDS011;9088;55.674;13.354;2023-09-08T04:16:33;0.60;;;0.60;;
17925;SDS011;9088;55.674;13.354;2023-09-08T04:19:01;0.70;;;0.70;;
17925;SDS011;9088;55.674;13.354;2023-09-08T04:21:28;0.60;;;0.60;;
17925;SDS011;9088;55.674;13.354;2023-09-08T04:23:55;0.70;;;0.70;;
17925;SDS011;9088;55.674;13.354;2023-09-08T04:26:22;0.60;;;0.60;;
17925;SDS011;9088;55.674;13.354;2023-09-08T04:28:49;0.60;;;0.60;;
17925;SDS011;9088;55.674;13.354;2023-09-08T04:31:16;0.70;;;0.70;;
17925;SDS011;9088;55.674;13.354;2023-09-08T04:33:44;0.60;;;0.60;;
17925;SDS011;9088;55.674;13.354;2023-09-08T04:36:12;0.60;;;0.60;;
17925;SDS011;9088;55.674;13.354;2023-09-08T04:38:40;0.60;;;0.60;;
17925;SDS011;9088;55.674;13.354;2023-09-08T04:41:07;0.60;;;0.60;;
17925;SDS011;9088;55.674;13.354;2023-09-08T04:43:34;0.87;;;0.87;;
17925;SDS011;9088;55.674;13.354;2023-09-08T04:46:01;0.80;;;0.80;;
17925;SDS011;9088;55.674;13.354;2023-09-08T04:48:28;0.80;;;0.80;;
17925;SDS011;9088;55.674;13.354;2023-09-08T04:50:56;0.80;;;0.80;;
17925;SDS011;9088;55.674;13.354;2023-09-08T04:53:24;0.87;;;0.87;;
17925;SDS011;9088;55.674;13.354;2023-09-08T04:55:51;0.80;;;0.80;;
17925;SDS011;9088;55.674;13.354;2023-09-08T04:58:18;0.80;;;0.80;;
17925;SDS011;9088;55.674;13.354;2023-09-08T05:00:45;0.80;;;0.80;;
17925;SDS011;9088;55.674;13.354;2023-09-08T05:03:12;0.90;;;0.90;;
17925;SDS011;9088;55.674;13.354;2023-09-08T05:05:39;0.80;;;0.80;;
17925;SDS011;9088;55.674;13.354;2023-09-08T05:08:06;0.90;;;0.90;;
17925;SDS011;9088;55.674;13.354;2023-09-08T05:10:34;0.80;;;0.80;;
17925;SDS011;9088;55.674;13.354;2023-09-08T05:13:01;0.90;;;0.90;;
17925;SDS011;9088;55.674;13.354;2023-09-08T05:15:29;0.80;;;0.80;;
17925;SDS011;9088;55.674;13.354;2023-09-08T05:17:56;0.80;;;0.80;;
17925;SDS011;9088;55.674;13.354;2023-09-08T05:20:23;0.83;;;0.83;;
17925;SDS011;9088;55.674;13.354;2023-09-08T05:22:50;0.90;;;0.90;;
17925;SDS011;9088;55.674;13.354;2023-09-08T05:25:17;0.87;;;0.87;;
17925;SDS011;9088;55.674;13.354;2023-09-08T05:27:46;0.80;;;0.80;;
17925;SDS011;9088;55.674;13.354;2023-09-08T05:30:14;0.70;;;0.70;;
17925;SDS011;9088;55.674;13.354;2023-09-08T05:32:41;0.70;;;0.70;;
17925;SDS011;9088;55.674;13.354;2023-09-08T05:35:08;0.70;;;0.70;;
17925;SDS011;9088;55.674;13.354;2023-09-08T05:37:35;0.70;;;0.70;;
17925;SDS011;9088;55.674;13.354;2023-09-08T05:40:02;0.77;;;0.77;;
17925;SDS011;9088;55.674;13.354;2023-09-08T05:42:30;0.80;;;0.80;;
17925;SDS011;9088;55.674;13.354;2023-09-08T05:44:58;0.70;;;0.70;;
17925;SDS011;9088;55.674;13.354;2023-09-08T05:47:25;0.70;;;0.70;;
17925;SDS011;9088;55.674;13.354;2023-09-08T05:49:52;0.70;;;0.70;;
17925;SDS011;9088;55.674;13.354;2023-09-08T05:52:19;0.70;;;0.70;;
17925;SDS011;9088;55.674;13.354;2023-09-08T05:54:46;0.70;;;0.70;;
17925;SDS011;9088;55.674;13.354;2023-09-08T05:57:13;0.80;;;0.80;;
17925;SDS011;9088;55.674;13.354;2023-09-08T05:59:40;0.70;;;0.70;;
17925;SDS011;9088;55.674;13.354;2023-09-08T06:02:08;0.80;;;0.80;;
17925;SDS011;9088;55.674;13.354;2023-09-08T06:04:35;0.70;;;0.70;;
17925;SDS011;9088;55.674;13.354;2023-09-08T06:07:03;0.70;;;0.70;;
17925;SDS011;9088;55.674;13.354;2023-09-08T06:09:30;0.60;;;0.60;;
17925;SDS011;9088;55.674;13.354;2023-09-08T06:11:57;0.70;;;0.70;;
17925;SDS011;9088;55.674;13.354;2023-09-08T06:14:24;0.70;;;0.70;;
17925;SDS011;9088;55.674;13.354;2023-09-08T06:16:51;0.60;;;0.60;;
17925;SDS011;9088;55.674;13.354;2023-09-08T06:19:19;0.70;;;0.70;;
17925;SDS011;9088;55.674;13.354;2023-09-08T06:21:46;0.60;;;0.60;;
17925;SDS011;9088;55.674;13.354;2023-09-08T06:24:13;0.60;;;0.60;;
17925;SDS011;9088;55.674;13.354;2023-09-08T06:26:40;0.60;;;0.60;;
17925;SDS011;9088;55.674;13.354;2023-09-08T06:29:08;0.60;;;0.60;;
17925;SDS011;9088;55.674;13.354;2023-09-08T06:31:35;0.60;;;0.60;;
17925;SDS011;9088;55.674;13.354;2023-09-08T06:34:02;0.70;;;0.70;;
17925;SDS011;9088;55.674;13.354;2023-09-08T06:36:30;0.53;;;0.53;;
17925;SDS011;9088;55.674;13.354;2023-09-08T06:38:57;0.70;;;0.70;;
17925;SDS011;9088;55.674;13.354;2023-09-08T06:41:24;0.70;;;0.70;;
17925;SDS011;9088;55.674;13.354;2023-09-08T06:43:52;0.80;;;0.80;;
17925;SDS011;9088;55.674;13.354;2023-09-08T06:46:19;0.90;;;0.90;;
17925;SDS011;9088;55.674;13.354;2023-09-08T06:48:46;0.90;;;0.90;;
17925;SDS011;9088;55.674;13.354;2023-09-08T06:51:13;0.70;;;0.70;;
17925;SDS011;9088;55.674;13.354;2023-09-08T06:53:42;0.90;;;0.90;;
17925;SDS011;9088;55.674;13.354;2023-09-08T06:56:09;0.90;;;0.90;;
17925;SDS011;9088;55.674;13.354;2023-09-08T06:58:36;0.80;;;0.80;;
17925;SDS011;9088;55.674;13.354;2023-09-08T07:01:03;0.90;;;0.90;;
17925;SDS011;9088;55.674;13.354;2023-09-08T07:03:30;0.80;;;0.80;;
17925;SDS011;9088;55.674;13.354;2023-09-08T07:06:01;0.80;;;0.80;;
17925;SDS011;9088;55.674;13.354;2023-09-08T07:08:28;0.90;;;0.90;;
17925;SDS011;9088;55.674;13.354;2023-09-08T07:10:57;0.80;;;0.80;;
17925;SDS011;9088;55.674;13.354;2023-09-08T07:13:24;0.90;;;0.90;;
17925;SDS011;9088;55.674;13.354;2023-09-08T07:15:51;0.90;;;0.90;;
17925;SDS011;9088;55.674;13.354;2023-09-08T07:18:18;0.70;;;0.70;;
17925;SDS011;9088;55.674;13.354;2023-09-08T07:20:46;0.70;;;0.70;;
17925;SDS011;9088;55.674;13.354;2023-09-08T07:23:13;0.80;;;0.80;;
17925;SDS011;9088;55.674;13.354;2023-09-08T07:25:44;0.90;;;0.90;;
17925;SDS011;9088;55.674;13.354;2023-09-08T07:28:13;0.80;;;0.80;;
17925;SDS011;9088;55.674;13.354;2023-09-08T07:30:40;0.80;;;0.80;;
17925;SDS011;9088;55.674;13.354;2023-09-08T07:33:07;0.80;;;0.80;;
17925;SDS011;9088;55.674;13.354;2023-09-08T07:35:35;0.80;;;0.80;;
17925;SDS011;9088;55.674;13.354;2023-09-08T07:38:03;0.80;;;0.80;;
17925;SDS011;9088;55.674;13.354;2023-09-08T07:40:31;0.80;;;0.80;;
17925;SDS011;9088;55.674;13.354;2023-09-08T07:42:58;0.80;;;0.80;;
17925;SDS011;9088;55.674;13.354;2023-09-08T07:45:26;0.70;;;0.70;;
17925;SDS011;9088;55.674;13.354;2023-09-08T07:47:53;0.70;;;0.70;;
17925;SDS011;9088;55.674;13.354;2023-09-08T07:50:21;0.70;;;0.70;;
17925;SDS011;9088;55.674;13.354;2023-09-08T07:52:49;0.70;;;0.70;;
17925;SDS011;9088;55.674;13.354;2023-09-08T07:55:16;0.70;;;0.70;;
17925;SDS011;9088;55.674;13.354;2023-09-08T07:57:44;0.70;;;0.70;;
17925;SDS011;9088;55.674;13.354;2023-09-08T08:00:12;0.70;;;0.70;;
17925;SDS011;9088;55.674;13.354;2023-09-08T08:02:41;0.70;;;0.70;;
17925;SDS011;9088;55.674;13.354;2023-09-08T08:05:09;0.70;;;0.70;;
17925;SDS011;9088;55.674;13.354;2023-09-08T08:07:36;0.70;;;0.70;;
17925;SDS011;9088;55.674;13.354;2023-09-08T08:10:03;0.67;;;0.67;;
17925;SDS011;9088;55.674;13.354;2023-09-08T08:12:30;0.60;;;0.60;;
17925;SDS011;9088;55.674;13.354;2023-09-08T08:14:57;0.60;;;0.60;;
17925;SDS011;9088;55.674;13.354;2023-09-08T08:17:24;0.60;;;0.60;;
17925;SDS011;9088;55.674;13.354;2023-09-08T08:19:54;0.60;;;0.60;;
17925;SDS011;9088;55.674;13.354;2023-09-08T08:22:21;0.60;;;0.60;;
17925;SDS011;9088;55.674;13.354;2023-09-08T08:24:48;0.60;;;0.60;;
17925;SDS011;9088;55.674;13.354;2023-09-08T08:27:15;0.60;;;0.60;;
17925;SDS011;9088;55.674;13.354;2023-09-08T08:29:42;0.60;;;0.60;;
17925;SDS011;9088;55.674;13.354;2023-09-08T08:32:09;0.60;;;0.60;;
17925;SDS011;9088;55.674;13.354;2023-09-08T08:34:37;0.60;;;0.60;;
17925;SDS011;9088;55.674;13.354;2023-09-08T08:37:05;0.60;;;0.60;;
17925;SDS011;9088;55.674;13.354;2023-09-08T08:39:35;0.50;;;0.50;;
17925;SDS011;9088;55.674;13.354;2023-09-08T08:42:06;0.60;;;0.60;;
17925;SDS011;9088;55.674;13.354;2023-09-08T08:44:33;0.60;;;0.60;;
17925;SDS011;9088;55.674;13.354;2023-09-08T08:47:01;0.60;;;0.60;;
17925;SDS011;9088;55.674;13.354;2023-09-08T08:49:29;0.50;;;0.50;;
17925;SDS011;9088;55.674;13.354;2023-09-08T08:51:57;0.50;;;0.50;;
17925;SDS011;9088;55.674;13.354;2023-09-08T08:54:27;0.50;;;0.50;;
17925;SDS011;9088;55.674;13.354;2023-09-08T08:56:55;0.50;;;0.50;;
17925;SDS011;9088;55.674;13.354;2023-09-08T08:59:22;0.50;;;0.50;;
17925;SDS011;9088;55.674;13.354;2023-09-08T09:01:49;0.50;;;0.50;;
17925;SDS011;9088;55.674;13.354;2023-09-08T09:04:16;0.50;;;0.50;;
17925;SDS011;9088;55.674;13.354;2023-09-08T09:06:44;0.60;;;0.60;;
17925;SDS011;9088;55.674;13.354;2023-09-08T09:09:11;0.50;;;0.50;;
17925;SDS011;9088;55.674;13.354;2023-09-08T09:11:40;0.50;;;0.50;;
17925;SDS011;9088;55.674;13.354;2023-09-08T09:14:11;0.60;;;0.60;;
17925;SDS011;9088;55.674;13.354;2023-09-08T09:16:38;0.50;;;0.50;;
17925;SDS011;9088;55.674;13.354;2023-09-08T09:19:06;1.20;;;1.20;;
17925;SDS011;9088;55.674;13.354;2023-09-08T09:21:41;1.10;;;1.10;;
17925;SDS011;9088;55.674;13.354;2023-09-08T09:24:10;0.50;;;0.50;;
17925;SDS011;9088;55.674;13.354;2023-09-08T09:26:41;0.60;;;0.60;;
17925;SDS011;9088;55.674;13.354;2023-09-08T09:29:11;1.30;;;1.30;;
17925;SDS011;9088;55.674;13.354;2023-09-08T09:31:43;1.30;;;1.30;;
17925;SDS011;9088;55.674;13.354;2023-09-08T09:34:16;1.53;;;1.53;;
17925;SDS011;9088;55.674;13.354;2023-09-08T09:36:43;1.63;;;1.63;;
17925;SDS011;9088;55.674;13.354;2023-09-08T09:39:11;1.70;;;1.70;;
17925;SDS011;9088;55.674;13.354;2023-09-08T09:41:38;1.73;;;1.73;;
17925;SDS011;9088;55.674;13.354;2023-09-08T09:44:06;2.03;;;1.93;;
17925;SDS011;9088;55.674;13.354;2023-09-08T09:46:33;2.07;;;1.97;;
17925;SDS011;9088;55.674;13.354;2023-09-08T09:49:00;1.80;;;1.80;;
17925;SDS011;9088;55.674;13.354;2023-09-08T09:51:28;1.60;;;1.60;;
17925;SDS011;9088;55.674;13.354;2023-09-08T09:53:56;1.47;;;1.47;;
17925;SDS011;9088;55.674;13.354;2023-09-08T09:56:23;1.90;;;1.90;;
17925;SDS011;9088;55.674;13.354;2023-09-08T09:58:52;1.60;;;1.60;;
17925;SDS011;9088;55.674;13.354;2023-09-08T10:01:21;1.70;;;1.70;;
17925;SDS011;9088;55.674;13.354;2023-09-08T10:03:49;1.80;;;1.80;;
17925;SDS011;9088;55.674;13.354;2023-09-08T10:06:16;1.90;;;1.90;;
17925;SDS011;9088;55.674;13.354;2023-09-08T10:08:46;1.90;;;1.90;;
17925;SDS011;9088;55.674;13.354;2023-09-08T10:11:13;1.83;;;1.83;;
17925;SDS011;9088;55.674;13.354;2023-09-08T10:13:42;1.60;;;1.60;;
17925;SDS011;9088;55.674;13.354;2023-09-08T10:16:09;1.42;;;1.42;;
17925;SDS011;9088;55.674;13.354;2023-09-08T10:18:40;1.55;;;1.55;;
17925;SDS011;9088;55.674;13.354;2023-09-08T10:21:08;1.52;;;1.52;;
17925;SDS011;9088;55.674;13.354;2023-09-08T10:23:36;1.33;;;1.33;;
17925;SDS011;9088;55.674;13.354;2023-09-08T10:26:05;1.50;;;1.50;;
17925;SDS011;9088;55.674;13.354;2023-09-08T10:28:33;1.60;;;1.60;;
17925;SDS011;9088;55.674;13.354;2023-09-08T10:31:00;1.45;;;1.45;;
17925;SDS011;9088;55.674;13.354;2023-09-08T10:33:28;1.50;;;1.50;;
17925;SDS011;9088;55.674;13.354;2023-09-08T10:35:57;1.65;;;1.65;;
17925;SDS011;9088;55.674;13.354;2023-09-08T10:38:25;1.40;;;1.40;;
17925;SDS011;9088;55.674;13.354;2023-09-08T10:40:52;1.67;;;1.67;;
17925;SDS011;9088;55.674;13.354;2023-09-08T10:43:19;1.55;;;1.55;;
17925;SDS011;9088;55.674;13.354;2023-09-08T10:45:47;1.77;;;1.77;;
17925;SDS011;9088;55.674;13.354;2023-09-08T10:48:14;1.90;;;1.90;;
17925;SDS011;9088;55.674;13.354;2023-09-08T10:50:41;2.28;;;2.17;;
17925;SDS011;9088;55.674;13.354;2023-09-08T10:53:16;2.17;;;2.08;;
17925;SDS011;9088;55.674;13.354;2023-09-08T10:55:44;2.50;;;2.40;;
17925;SDS011;9088;55.674;13.354;2023-09-08T10:58:20;2.80;;;2.70;;
17925;SDS011;9088;55.674;13.354;2023-09-08T11:00:48;2.80;;;2.70;;
17925;SDS011;9088;55.674;13.354;2023-09-08T11:03:25;3.15;;;3.05;;
17925;SDS011;9088;55.674;13.354;2023-09-08T11:05:53;2.58;;;2.47;;
17925;SDS011;9088;55.674;13.354;2023-09-08T11:08:22;2.88;;;2.78;;
17925;SDS011;9088;55.674;13.354;2023-09-08T11:10:49;2.50;;;2.40;;
17925;SDS011;9088;55.674;13.354;2023-09-08T11:13:17;2.97;;;2.88;;
17925;SDS011;9088;55.674;13.354;2023-09-08T11:15:44;2.90;;;2.80;;
17925;SDS011;9088;55.674;13.354;2023-09-08T11:18:11;4.20;;;4.10;;
17925;SDS011;9088;55.674;13.354;2023-09-08T11:20:38;2.90;;;2.80;;
17925;SDS011;9088;55.674;13.354;2023-09-08T11:23:05;3.53;;;3.42;;
17925;SDS011;9088;55.674;13.354;2023-09-08T11:25:33;2.67;;;2.58;;
17925;SDS011;9088;55.674;13.354;2023-09-08T11:28:01;3.00;;;2.90;;
17925;SDS011;9088;55.674;13.354;2023-09-08T11:30:28;3.17;;;3.08;;
17925;SDS011;9088;55.674;13.354;2023-09-08T11:32:55;3.22;;;3.13;;
17925;SDS011;9088;55.674;13.354;2023-09-08T11:35:25;3.78;;;3.67;;
17925;SDS011;9088;55.674;13.354;2023-09-08T11:37:52;2.83;;;2.72;;
17925;SDS011;9088;55.674;13.354;2023-09-08T11:40:20;3.53;;;3.42;;
17925;SDS011;9088;55.674;13.354;2023-09-08T11:42:48;4.28;;;4.13;;
17925;SDS011;9088;55.674;13.354;2023-09-08T11:45:16;4.30;;;4.15;;
17925;SDS011;9088;55.674;13.354;2023-09-08T11:47:46;5.15;;;4.95;;
17925;SDS011;9088;55.674;13.354;2023-09-08T11:50:14;4.88;;;4.68;;
17925;SDS011;9088;55.674;13.354;2023-09-08T11:52:43;5.10;;;4.90;;
17925;SDS011;9088;55.674;13.354;2023-09-08T11:55:10;3.50;;;3.40;;
17925;SDS011;9088;55.674;13.354;2023-09-08T11:57:37;3.90;;;3.80;;
17925;SDS011;9088;55.674;13.354;2023-09-08T12:00:07;5.53;;;5.32;;
17925;SDS011;9088;55.674;13.354;2023-09-08T12:02:37;3.72;;;3.63;;
17925;SDS011;9088;55.674;13.354;2023-09-08T12:05:04;3.20;;;3.10;;
17925;SDS011;9088;55.674;13.354;2023-09-08T12:07:31;4.53;;;4.32;;
17925;SDS011;9088;55.674;13.354;2023-09-08T12:09:58;4.72;;;4.53;;
17925;SDS011;9088;55.674;13.354;2023-09-08T12:12:34;4.13;;;4.03;;
17925;SDS011;9088;55.674;13.354;2023-09-08T12:15:01;3.97;;;3.88;;
17925;SDS011;9088;55.674;13.354;2023-09-08T12:17:32;4.63;;;4.43;;
17925;SDS011;9088;55.674;13.354;2023-09-08T12:19:59;5.07;;;4.88;;
17925;SDS011;9088;55.674;13.354;2023-09-08T12:22:26;4.70;;;4.50;;
17925;SDS011;9088;55.674;13.354;2023-09-08T12:24:57;4.95;;;4.75;;
17925;SDS011;9088;55.674;13.354;2023-09-08T12:27:27;4.72;;;4.53;;
17925;SDS011;9088;55.674;13.354;2023-09-08T12:29:55;4.78;;;4.57;;
17925;SDS011;9088;55.674;13.354;2023-09-08T12:32:22;4.68;;;4.47;;
17925;SDS011;9088;55.674;13.354;2023-09-08T12:34:50;5.15;;;4.95;;
17925;SDS011;9088;55.674;13.354;2023-09-08T12:37:21;5.07;;;4.88;;
17925;SDS011;9088;55.674;13.354;2023-09-08T12:39:48;4.72;;;4.53;;
17925;SDS011;9088;55.674;13.354;2023-09-08T12:42:15;3.63;;;3.53;;
17925;SDS011;9088;55.674;13.354;2023-09-08T12:44:42;5.00;;;4.80;;
17925;SDS011;9088;55.674;13.354;2023-09-08T12:47:09;5.28;;;5.07;;
17925;SDS011;9088;55.674;13.354;2023-09-08T12:49:38;5.07;;;4.88;;
17925;SDS011;9088;55.674;13.354;2023-09-08T12:52:06;5.45;;;5.25;;
17925;SDS011;9088;55.674;13.354;2023-09-08T12:54:34;4.75;;;4.55;;
17925;SDS011;9088;55.674;13.354;2023-09-08T12:57:01;4.38;;;4.20;;
17925;SDS011;9088;55.674;13.354;2023-09-08T12:59:28;4.45;;;4.28;;
17925;SDS011;9088;55.674;13.354;2023-09-08T13:01:55;4.88;;;4.68;;
17925;SDS011;9088;55.674;13.354;2023-09-08T13:04:23;5.70;;;5.50;;
17925;SDS011;9088;55.674;13.354;2023-09-08T13:06:50;5.78;;;5.57;;
17925;SDS011;9088;55.674;13.354;2023-09-08T13:09:18;6.07;;;5.88;;
17925;SDS011;9088;55.674;13.354;2023-09-08T13:11:47;6.00;;;5.80;;
17925;SDS011;9088;55.674;13.354;2023-09-08T13:14:14;6.35;;;6.15;;
17925;SDS011;9088;55.674;13.354;2023-09-08T13:16:41;6.32;;;6.13;;
17925;SDS011;9088;55.674;13.354;2023-09-08T13:19:08;5.90;;;5.70;;
17925;SDS011;9088;55.674;13.354;2023-09-08T13:21:35;6.03;;;5.82;;
17925;SDS011;9088;55.674;13.354;2023-09-08T13:24:05;6.50;;;6.28;;
17925;SDS011;9088;55.674;13.354;2023-09-08T13:26:34;6.43;;;6.22;;
17925;SDS011;9088;55.674;13.354;2023-09-08T13:29:01;6.25;;;6.05;;
17925;SDS011;9088;55.674;13.354;2023-09-08T13:31:28;5.93;;;5.72;;
17925;SDS011;9088;55.674;13.354;2023-09-08T13:33:55;6.43;;;6.20;;
17925;SDS011;9088;55.674;13.354;2023-09-08T13:36:22;6.32;;;6.13;;
17925;SDS011;9088;55.674;13.354;2023-09-08T13:38:49;6.20;;;6.00;;
17925;SDS011;9088;55.674;13.354;2023-09-08T13:41:16;6.45;;;6.25;;
17925;SDS011;9088;55.674;13.354;2023-09-08T13:43:45;5.95;;;5.75;;
17925;SDS011;9088;55.674;13.354;2023-09-08T13:46:12;5.93;;;5.72;;
17925;SDS011;9088;55.674;13.354;2023-09-08T13:48:39;6.32;;;6.13;;
17925;SDS011;9088;55.674;13.354;2023-09-08T13:51:06;6.25;;;6.05;;
17925;SDS011;9088;55.674;13.354;2023-09-08T13:53:33;5.78;;;5.57;;
17925;SDS011;9088;55.674;13.354;2023-09-08T13:56:00;7.18;;;6.88;;
17925;SDS011;9088;55.674;13.354;2023-09-08T13:58:29;6.82;;;6.53;;
17925;SDS011;9088;55.674;13.354;2023-09-08T14:00:58;6.28;;;6.07;;
17925;SDS011;9088;55.674;13.354;2023-09-08T14:03:25;6.85;;;6.55;;
17925;SDS011;9088;55.674;13.354;2023-09-08T14:05:52;5.40;;;5.20;;
17925;SDS011;9088;55.674;13.354;2023-09-08T14:08:19;6.32;;;6.13;;
17925;SDS011;9088;55.674;13.354;2023-09-08T14:10:49;6.05;;;5.85;;
17925;SDS011;9088;55.674;13.354;2023-09-08T14:13:16;6.82;;;6.53;;
17925;SDS011;9088;55.674;13.354;2023-09-08T14:15:43;5.60;;;5.40;;
17925;SDS011;9088;55.674;13.354;2023-09-08T14:18:11;6.47;;;6.28;;
17925;SDS011;9088;55.674;13.354;2023-09-08T14:20:39;5.93;;;5.72;;
17925;SDS011;9088;55.674;13.354;2023-09-08T14:23:06;5.55;;;5.35;;
17925;SDS011;9088;55.674;13.354;2023-09-08T14:25:33;4.88;;;4.68;;
17925;SDS011;9088;55.674;13.354;2023-09-08T14:28:00;4.63;;;4.43;;
17925;SDS011;9088;55.674;13.354;2023-09-08T14:30:28;5.10;;;4.90;;
17925;SDS011;9088;55.674;13.354;2023-09-08T14:32:55;4.72;;;4.53;;
17925;SDS011;9088;55.674;13.354;2023-09-08T14:35:24;3.42;;;3.33;;
17925;SDS011;9088;55.674;13.354;2023-09-08T14:37:51;4.13;;;4.03;;
17925;SDS011;9088;55.674;13.354;2023-09-08T14:40:18;4.18;;;4.07;;
17925;SDS011;9088;55.674;13.354;2023-09-08T14:42:45;4.03;;;3.92;;
17925;SDS011;9088;55.674;13.354;2023-09-08T14:45:12;3.53;;;3.42;;
17925;SDS011;9088;55.674;13.354;2023-09-08T14:47:39;3.15;;;3.05;;
17925;SDS011;9088;55.674;13.354;2023-09-08T14:50:06;4.03;;;3.92;;
17925;SDS011;9088;55.674;13.354;2023-09-08T14:52:35;3.35;;;3.25;;